sensor_id;sensor_type;location;lat;lon;timestamp;pressure;altitude;pressure_sealevel;temperature;humidity
33496;BME280;19836;55.812;37.560;2023-03-03T00:01:05;98236.66;;;0.85;77.42
33496;BME280;19836;55.812;37.560;2023-03-03T00:03:32;98220.81;;;0.88;77.43
33496;BME280;19836;55.812;37.560;2023-03-03T00:05:58;98220.69;;;0.94;77.07
33496;BME280;19836;55.812;37.560;2023-03-03T00:08:25;98212.81;;;0.93;77.20
33496;BME280;19836;55.812;37.560;2023-03-03T00:10:51;98201.47;;;0.89;77.34
33496;BME280;19836;55.812;37.560;2023-03-03T00:13:22;98211.97;;;0.91;77.42
33496;BME280;19836;55.812;37.560;2023-03-03T00:15:49;98216.28;;;0.95;77.52
33496;BME280;19836;55.812;37.560;2023-03-03T00:20:57;98208.38;;;0.95;77.55
33496;BME280;19836;55.812;37.560;2023-03-03T00:23:29;98191.69;;;0.96;77.84
33496;BME280;19836;55.812;37.560;2023-03-03T00:25:56;98193.31;;;1.01;78.08
33496;BME280;19836;55.812;37.560;2023-03-03T00:28:31;98188.16;;;0.97;77.73
33496;BME280;19836;55.812;37.560;2023-03-03T00:31:15;98181.06;;;0.99;77.81
33496;BME280;19836;55.812;37.560;2023-03-03T00:33:46;98185.44;;;1.00;78.02
33496;BME280;19836;55.812;37.560;2023-03-03T00:38:39;98180.13;;;1.03;78.24
33496;BME280;19836;55.812;37.560;2023-03-03T00:41:25;98174.75;;;1.07;78.33
33496;BME280;19836;55.812;37.560;2023-03-03T00:43:52;98165.97;;;1.08;78.25
33496;BME280;19836;55.812;37.560;2023-03-03T00:46:20;98170.25;;;1.14;78.43
33496;BME280;19836;55.812;37.560;2023-03-03T00:48:47;98164.06;;;1.15;78.24
33496;BME280;19836;55.812;37.560;2023-03-03T00:51:28;98158.75;;;1.18;78.62
33496;BME280;19836;55.812;37.560;2023-03-03T00:53:57;98155.19;;;1.20;78.64
33496;BME280;19836;55.812;37.560;2023-03-03T00:56:24;98154.31;;;1.20;78.26
33496;BME280;19836;55.812;37.560;2023-03-03T01:26:18;98130.41;;;1.27;79.09
33496;BME280;19836;55.812;37.560;2023-03-03T01:28:44;98140.16;;;1.24;79.53
33496;BME280;19836;55.812;37.560;2023-03-03T01:31:11;98119.03;;;1.25;79.47
33496;BME280;19836;55.812;37.560;2023-03-03T01:33:39;98125.13;;;1.29;79.72
33496;BME280;19836;55.812;37.560;2023-03-03T01:36:07;98133.03;;;1.29;79.80
33496;BME280;19836;55.812;37.560;2023-03-03T01:38:37;98119.84;;;1.29;79.91
33496;BME280;19836;55.812;37.560;2023-03-03T01:41:04;98120.63;;;1.34;79.98
33496;BME280;19836;55.812;37.560;2023-03-03T01:43:31;98140.00;;;1.33;79.94
33496;BME280;19836;55.812;37.560;2023-03-03T01:48:30;98120.63;;;1.34;79.99
33496;BME280;19836;55.812;37.560;2023-03-03T01:51:22;98119.78;;;1.33;80.37
33496;BME280;19836;55.812;37.560;2023-03-03T01:53:52;98126.78;;;1.34;80.40
33496;BME280;19836;55.812;37.560;2023-03-03T01:56:19;98123.25;;;1.35;80.61
33496;BME280;19836;55.812;37.560;2023-03-03T01:58:48;98114.41;;;1.38;80.64
33496;BME280;19836;55.812;37.560;2023-03-03T02:01:18;98108.09;;;1.45;80.75
33496;BME280;19836;55.812;37.560;2023-03-03T02:03:45;98103.72;;;1.44;80.37
33496;BME280;19836;55.812;37.560;2023-03-03T02:06:17;98110.84;;;1.39;80.19
33496;BME280;19836;55.812;37.560;2023-03-03T02:08:53;98104.75;;;1.37;80.33
33496;BME280;19836;55.812;37.560;2023-03-03T02:11:22;98101.22;;;1.38;80.59
33496;BME280;19836;55.812;37.560;2023-03-03T02:13:49;98095.91;;;1.39;80.82
33496;BME280;19836;55.812;37.560;2023-03-03T02:16:15;98092.25;;;1.45;80.62
33496;BME280;19836;55.812;37.560;2023-03-03T02:18:41;98085.28;;;1.42;80.88
33496;BME280;19836;55.812;37.560;2023-03-03T02:21:13;98078.28;;;1.40;80.34
33496;BME280;19836;55.812;37.560;2023-03-03T02:23:52;98078.28;;;1.40;80.99
33496;BME280;19836;55.812;37.560;2023-03-03T02:26:23;98079.06;;;1.45;80.75
33496;BME280;19836;55.812;37.560;2023-03-03T02:28:55;98076.41;;;1.45;80.87
33496;BME280;19836;55.812;37.560;2023-03-03T02:31:26;98075.56;;;1.44;80.50
33496;BME280;19836;55.812;37.560;2023-03-03T02:33:53;98056.16;;;1.47;80.60
33496;BME280;19836;55.812;37.560;2023-03-03T02:36:24;98060.56;;;1.46;80.52
33496;BME280;19836;55.812;37.560;2023-03-03T02:39:42;98065.84;;;1.46;80.22
33496;BME280;19836;55.812;37.560;2023-03-03T02:41:59;98058.81;;;1.47;80.30
33496;BME280;19836;55.812;37.560;2023-03-03T02:44:34;98065.88;;;1.45;80.30
33496;BME280;19836;55.812;37.560;2023-03-03T02:47:01;98064.13;;;1.44;80.40
33496;BME280;19836;55.812;37.560;2023-03-03T02:49:29;98060.59;;;1.45;80.59
33496;BME280;19836;55.812;37.560;2023-03-03T02:51:58;98047.34;;;1.48;80.77
33496;BME280;19836;55.812;37.560;2023-03-03T02:54:26;98058.72;;;1.50;80.34
33496;BME280;19836;55.812;37.560;2023-03-03T02:56:52;98050.81;;;1.50;80.25
33496;BME280;19836;55.812;37.560;2023-03-03T02:59:20;98046.47;;;1.47;80.25
33496;BME280;19836;55.812;37.560;2023-03-03T03:01:48;98048.25;;;1.47;80.51
33496;BME280;19836;55.812;37.560;2023-03-03T03:04:25;98052.66;;;1.46;80.46
33496;BME280;19836;55.812;37.560;2023-03-03T03:06:52;98042.88;;;1.50;80.64
33496;BME280;19836;55.812;37.560;2023-03-03T03:09:21;98046.44;;;1.49;80.50
33496;BME280;19836;55.812;37.560;2023-03-03T03:11:49;98042.84;;;1.53;80.57
33496;BME280;19836;55.812;37.560;2023-03-03T03:14:18;98043.72;;;1.53;80.78
33496;BME280;19836;55.812;37.560;2023-03-03T03:16:45;98043.75;;;1.52;80.50
33496;BME280;19836;55.812;37.560;2023-03-03T03:19:11;98042.03;;;1.51;80.91
33496;BME280;19836;55.812;37.560;2023-03-03T03:21:37;98044.59;;;1.52;80.76
33496;BME280;19836;55.812;37.560;2023-03-03T03:24:05;98042.88;;;1.51;80.66
33496;BME280;19836;55.812;37.560;2023-03-03T03:26:32;98043.78;;;1.50;80.73
33496;BME280;19836;55.812;37.560;2023-03-03T03:28:59;98044.66;;;1.51;80.46
33496;BME280;19836;55.812;37.560;2023-03-03T03:31:25;98045.59;;;1.48;80.93
33496;BME280;19836;55.812;37.560;2023-03-03T03:33:51;98042.06;;;1.48;80.92
33496;BME280;19836;55.812;37.560;2023-03-03T03:36:19;98037.63;;;1.50;81.15
33496;BME280;19836;55.812;37.560;2023-03-03T03:38:45;98037.69;;;1.48;81.26
33496;BME280;19836;55.812;37.560;2023-03-03T03:41:11;98030.69;;;1.46;81.09
33496;BME280;19836;55.812;37.560;2023-03-03T03:43:38;98027.19;;;1.44;81.19
33496;BME280;19836;55.812;37.560;2023-03-03T03:46:05;98028.13;;;1.43;81.58
33496;BME280;19836;55.812;37.560;2023-03-03T03:48:31;98025.47;;;1.43;81.59
33496;BME280;19836;55.812;37.560;2023-03-03T03:50:59;98027.28;;;1.41;81.44
33496;BME280;19836;55.812;37.560;2023-03-03T03:53:26;98023.78;;;1.40;81.50
33496;BME280;19836;55.812;37.560;2023-03-03T03:55:52;98027.28;;;1.41;81.82
33496;BME280;19836;55.812;37.560;2023-03-03T03:58:19;98029.88;;;1.42;81.88
33496;BME280;19836;55.812;37.560;2023-03-03T04:00:51;98019.28;;;1.44;81.58
33496;BME280;19836;55.812;37.560;2023-03-03T04:03:18;98014.91;;;1.43;81.82
33496;BME280;19836;55.812;37.560;2023-03-03T04:05:46;98006.19;;;1.41;81.71
33496;BME280;19836;55.812;37.560;2023-03-03T04:08:12;98011.41;;;1.42;82.04
33496;BME280;19836;55.812;37.560;2023-03-03T04:10:39;98008.09;;;1.34;82.15
33496;BME280;19836;55.812;37.560;2023-03-03T04:13:06;98008.09;;;1.33;82.28
33496;BME280;19836;55.812;37.560;2023-03-03T04:15:33;98003.75;;;1.32;82.38
33496;BME280;19836;55.812;37.560;2023-03-03T04:18:00;98007.16;;;1.35;82.44
33496;BME280;19836;55.812;37.560;2023-03-03T04:20:26;98008.88;;;1.38;82.72
33496;BME280;19836;55.812;37.560;2023-03-03T04:22:54;98002.78;;;1.36;82.51
33496;BME280;19836;55.812;37.560;2023-03-03T04:25:23;98003.63;;;1.36;82.43
33496;BME280;19836;55.812;37.560;2023-03-03T04:27:51;98002.78;;;1.36;82.61
33496;BME280;19836;55.812;37.560;2023-03-03T04:30:21;98008.06;;;1.36;83.13
33496;BME280;19836;55.812;37.560;2023-03-03T04:32:51;98001.00;;;1.35;82.88
33496;BME280;19836;55.812;37.560;2023-03-03T04:35:20;98009.84;;;1.34;82.79
33496;BME280;19836;55.812;37.560;2023-03-03T04:37:46;97999.31;;;1.32;83.00
33496;BME280;19836;55.812;37.560;2023-03-03T04:40:13;98014.34;;;1.29;82.81
33496;BME280;19836;55.812;37.560;2023-03-03T04:42:41;97991.53;;;1.26;82.75
33496;BME280;19836;55.812;37.560;2023-03-03T04:45:09;97990.56;;;1.30;82.76
33496;BME280;19836;55.812;37.560;2023-03-03T04:47:36;97996.69;;;1.32;82.65
33496;BME280;19836;55.812;37.560;2023-03-03T04:50:03;97995.88;;;1.29;83.02
33496;BME280;19836;55.812;37.560;2023-03-03T04:52:31;97996.84;;;1.25;82.61
33496;BME280;19836;55.812;37.560;2023-03-03T04:54:57;97996.91;;;1.23;82.90
33496;BME280;19836;55.812;37.560;2023-03-03T04:57:24;98006.56;;;1.23;82.99
33496;BME280;19836;55.812;37.560;2023-03-03T04:59:51;98002.97;;;1.27;82.90
33496;BME280;19836;55.812;37.560;2023-03-03T05:02:18;97998.53;;;1.27;83.25
33496;BME280;19836;55.812;37.560;2023-03-03T05:04:45;97994.16;;;1.28;83.04
33496;BME280;19836;55.812;37.560;2023-03-03T05:07:11;98004.69;;;1.28;83.01
33496;BME280;19836;55.812;37.560;2023-03-03T05:09:37;98004.69;;;1.29;83.04
33496;BME280;19836;55.812;37.560;2023-03-03T05:12:03;98001.94;;;1.32;83.17
33496;BME280;19836;55.812;37.560;2023-03-03T05:14:29;98006.28;;;1.35;83.09
33496;BME280;19836;55.812;37.560;2023-03-03T05:16:56;98013.19;;;1.42;83.20
33496;BME280;19836;55.812;37.560;2023-03-03T05:19:22;98014.00;;;1.44;83.00
33496;BME280;19836;55.812;37.560;2023-03-03T05:21:48;98018.53;;;1.39;83.23
33496;BME280;19836;55.812;37.560;2023-03-03T05:24:15;98002.84;;;1.33;82.92
33496;BME280;19836;55.812;37.560;2023-03-03T05:26:41;98015.13;;;1.34;82.75
33496;BME280;19836;55.812;37.560;2023-03-03T05:29:08;98009.78;;;1.37;82.90
33496;BME280;19836;55.812;37.560;2023-03-03T05:31:34;98014.19;;;1.35;82.96
33496;BME280;19836;55.812;37.560;2023-03-03T05:34:00;98016.84;;;1.35;82.99
33496;BME280;19836;55.812;37.560;2023-03-03T05:36:26;98009.63;;;1.44;83.10
33496;BME280;19836;55.812;37.560;2023-03-03T05:38:52;98014.72;;;1.52;82.94
33496;BME280;19836;55.812;37.560;2023-03-03T05:41:18;98012.00;;;1.55;82.34
33496;BME280;19836;55.812;37.560;2023-03-03T05:43:44;98016.50;;;1.50;81.94
33496;BME280;19836;55.812;37.560;2023-03-03T05:46:10;98012.06;;;1.53;81.89
33496;BME280;19836;55.812;37.560;2023-03-03T05:48:36;98017.22;;;1.58;81.65
33496;BME280;19836;55.812;37.560;2023-03-03T05:51:02;98017.97;;;1.63;81.69
33496;BME280;19836;55.812;37.560;2023-03-03T05:53:28;98025.00;;;1.64;81.46
33496;BME280;19836;55.812;37.560;2023-03-03T05:55:54;98019.72;;;1.64;81.59
33496;BME280;19836;55.812;37.560;2023-03-03T05:58:21;98018.91;;;1.60;80.79
33496;BME280;19836;55.812;37.560;2023-03-03T06:00:47;98015.47;;;1.58;80.74
33496;BME280;19836;55.812;37.560;2023-03-03T06:03:12;98016.25;;;1.62;80.94
33496;BME280;19836;55.812;37.560;2023-03-03T06:05:38;98023.16;;;1.67;80.91
33496;BME280;19836;55.812;37.560;2023-03-03T06:08:05;98015.16;;;1.70;80.35
33496;BME280;19836;55.812;37.560;2023-03-03T06:10:31;98027.31;;;1.77;80.48
33496;BME280;19836;55.812;37.560;2023-03-03T06:13:01;98019.38;;;1.79;80.55
33496;BME280;19836;55.812;37.560;2023-03-03T06:15:27;98024.56;;;1.83;80.19
33496;BME280;19836;55.812;37.560;2023-03-03T06:17:53;98029.78;;;1.85;80.16
33496;BME280;19836;55.812;37.560;2023-03-03T06:20:19;98032.41;;;1.85;79.56
33496;BME280;19836;55.812;37.560;2023-03-03T06:22:45;98035.97;;;1.84;79.70
33496;BME280;19836;55.812;37.560;2023-03-03T06:25:11;98022.75;;;1.85;79.34
33496;BME280;19836;55.812;37.560;2023-03-03T06:27:36;98032.31;;;1.89;78.99
33496;BME280;19836;55.812;37.560;2023-03-03T06:30:03;98033.88;;;1.98;79.31
33496;BME280;19836;55.812;37.560;2023-03-03T06:32:29;98032.78;;;2.06;78.89
33496;BME280;19836;55.812;37.560;2023-03-03T06:34:55;98028.16;;;2.16;78.23
33496;BME280;19836;55.812;37.560;2023-03-03T06:37:21;98026.38;;;2.16;78.00
33496;BME280;19836;55.812;37.560;2023-03-03T06:39:47;98025.66;;;2.10;77.57
33496;BME280;19836;55.812;37.560;2023-03-03T06:42:12;98025.75;;;2.07;77.22
33496;BME280;19836;55.812;37.560;2023-03-03T06:44:38;98026.69;;;2.04;77.49
33496;BME280;19836;55.812;37.560;2023-03-03T06:47:04;98029.19;;;2.09;77.12
33496;BME280;19836;55.812;37.560;2023-03-03T06:49:30;98026.34;;;2.18;76.97
33496;BME280;19836;55.812;37.560;2023-03-03T06:51:58;98023.69;;;2.18;76.89
33496;BME280;19836;55.812;37.560;2023-03-03T06:54:28;98028.19;;;2.14;76.52
33496;BME280;19836;55.812;37.560;2023-03-03T06:56:58;98035.09;;;2.20;76.66
33496;BME280;19836;55.812;37.560;2023-03-03T06:59:26;98027.16;;;2.20;76.54
33496;BME280;19836;55.812;37.560;2023-03-03T07:01:53;98035.16;;;2.18;76.27
33496;BME280;19836;55.812;37.560;2023-03-03T07:04:30;98028.06;;;2.19;76.53
33496;BME280;19836;55.812;37.560;2023-03-03T07:07:06;98038.53;;;2.23;76.45
33496;BME280;19836;55.812;37.560;2023-03-03T07:09:33;98034.91;;;2.27;76.01
33496;BME280;19836;55.812;37.560;2023-03-03T07:12:09;98037.72;;;2.20;76.29
33496;BME280;19836;55.812;37.560;2023-03-03T07:14:46;98039.59;;;2.16;75.90
33496;BME280;19836;55.812;37.560;2023-03-03T07:17:19;98042.25;;;2.15;75.64
33496;BME280;19836;55.812;37.560;2023-03-03T07:19:45;98043.09;;;2.17;75.59
33496;BME280;19836;55.812;37.560;2023-03-03T07:22:20;98042.22;;;2.16;75.82
33496;BME280;19836;55.812;37.560;2023-03-03T07:24:49;98031.69;;;2.15;75.74
33496;BME280;19836;55.812;37.560;2023-03-03T07:27:24;98037.06;;;2.12;75.63
33496;BME280;19836;55.812;37.560;2023-03-03T07:29:53;98037.97;;;2.11;75.58
33496;BME280;19836;55.812;37.560;2023-03-03T07:34:55;98048.53;;;2.11;75.27
33496;BME280;19836;55.812;37.560;2023-03-03T07:37:29;98039.59;;;2.15;75.03
33496;BME280;19836;55.812;37.560;2023-03-03T07:39:56;98039.50;;;2.21;75.10
33496;BME280;19836;55.812;37.560;2023-03-03T07:45:27;98046.28;;;2.31;74.98
33496;BME280;19836;55.812;37.560;2023-03-03T07:50:29;98045.03;;;2.44;74.58
33496;BME280;19836;55.812;37.560;2023-03-03T07:52:58;98049.38;;;2.46;74.31
33496;BME280;19836;55.812;37.560;2023-03-03T07:55:36;98049.53;;;2.42;73.82
33496;BME280;19836;55.812;37.560;2023-03-03T07:58:14;98052.06;;;2.45;73.73
33496;BME280;19836;55.812;37.560;2023-03-03T08:03:30;98051.59;;;2.63;73.46
33496;BME280;19836;55.812;37.560;2023-03-03T08:06:23;98048.81;;;2.67;73.48
33496;BME280;19836;55.812;37.560;2023-03-03T08:08:45;98049.78;;;2.65;73.05
33496;BME280;19836;55.812;37.560;2023-03-03T08:11:11;98046.22;;;2.66;72.98
33496;BME280;19836;55.812;37.560;2023-03-03T08:13:39;98058.28;;;2.76;73.07
33496;BME280;19836;55.812;37.560;2023-03-03T08:18:39;98066.91;;;2.84;72.62
33496;BME280;19836;55.812;37.560;2023-03-03T08:21:14;98062.50;;;2.84;72.42
33496;BME280;19836;55.812;37.560;2023-03-03T08:23:41;98057.47;;;2.74;71.78
33496;BME280;19836;55.812;37.560;2023-03-03T08:26:07;98064.63;;;2.70;72.15
33496;BME280;19836;55.812;37.560;2023-03-03T08:28:34;98064.66;;;2.69;71.78
33496;BME280;19836;55.812;37.560;2023-03-03T08:31:00;98073.38;;;2.72;71.85
33496;BME280;19836;55.812;37.560;2023-03-03T08:33:26;98070.00;;;2.66;71.82
33496;BME280;19836;55.812;37.560;2023-03-03T08:35:52;98060.28;;;2.68;71.88
33496;BME280;19836;55.812;37.560;2023-03-03T08:38:19;98061.94;;;2.72;72.04
33496;BME280;19836;55.812;37.560;2023-03-03T08:40:47;98068.75;;;2.80;72.24
33496;BME280;19836;55.812;37.560;2023-03-03T08:43:14;98059.78;;;2.86;71.82
33496;BME280;19836;55.812;37.560;2023-03-03T08:45:44;98058.81;;;2.90;71.69
33496;BME280;19836;55.812;37.560;2023-03-03T08:48:10;98070.16;;;2.93;71.60
33496;BME280;19836;55.812;37.560;2023-03-03T08:50:36;98060.25;;;3.01;71.44
33496;BME280;19836;55.812;37.560;2023-03-03T08:53:03;98064.03;;;3.23;71.38
33496;BME280;19836;55.812;37.560;2023-03-03T08:55:30;98059.25;;;3.36;70.80
33496;BME280;19836;55.812;37.560;2023-03-03T08:57:55;98070.66;;;3.39;70.71
33496;BME280;19836;55.812;37.560;2023-03-03T09:00:22;98062.56;;;3.44;70.30
33496;BME280;19836;55.812;37.560;2023-03-03T09:02:49;98067.22;;;3.65;70.20
33496;BME280;19836;55.812;37.560;2023-03-03T09:05:16;98071.34;;;3.75;69.81
33496;BME280;19836;55.812;37.560;2023-03-03T09:07:43;98070.13;;;3.85;69.49
33496;BME280;19836;55.812;37.560;2023-03-03T09:10:12;98073.31;;;3.96;69.33
33496;BME280;19836;55.812;37.560;2023-03-03T09:12:41;98069.94;;;3.91;69.08
33496;BME280;19836;55.812;37.560;2023-03-03T09:15:15;98070.59;;;3.70;69.07
33496;BME280;19836;55.812;37.560;2023-03-03T09:17:42;98063.66;;;3.66;69.52
33496;BME280;19836;55.812;37.560;2023-03-03T09:20:30;98063.50;;;3.72;69.80
33496;BME280;19836;55.812;37.560;2023-03-03T09:23:46;98057.63;;;3.90;69.66
33496;BME280;19836;55.812;37.560;2023-03-03T09:25:44;98058.38;;;4.21;69.78
33496;BME280;19836;55.812;37.560;2023-03-03T09:28:29;98062.22;;;4.12;69.26
33496;BME280;19836;55.812;37.560;2023-03-03T09:30:58;98063.19;;;3.81;69.09
33496;BME280;19836;55.812;37.560;2023-03-03T09:33:40;98064.53;;;3.95;69.58
33496;BME280;19836;55.812;37.560;2023-03-03T09:36:26;98064.81;;;4.14;69.66
33496;BME280;19836;55.812;37.560;2023-03-03T09:38:54;98066.91;;;4.32;69.38
33496;BME280;19836;55.812;37.560;2023-03-03T09:41:36;98083.16;;;4.47;69.28
33496;BME280;19836;55.812;37.560;2023-03-03T09:47:01;98074.59;;;4.39;69.21
33496;BME280;19836;55.812;37.560;2023-03-03T09:49:34;98072.06;;;4.35;69.02
33496;BME280;19836;55.812;37.560;2023-03-03T09:54:45;98067.31;;;4.72;69.01
33496;BME280;19836;55.812;37.560;2023-03-03T10:11:09;98065.50;;;4.20;67.79
33496;BME280;19836;55.812;37.560;2023-03-03T10:19:20;98067.53;;;4.11;67.76
33496;BME280;19836;55.812;37.560;2023-03-03T10:22:17;98057.63;;;3.90;67.64
